Time;durP1;ratioP1;P1;durP2;ratioP2;P2;SDS_P1;SDS_P2;PMS_P1;PMS_P2;Temp;Humidity;BMP_temperature;BMP_pressure;BME280_temperature;BME280_humidity;BME280_pressure;Samples;Min_cycle;Max_cycle;Signal;HPM_P1;HPM_P2
2023/07/07 00:01:18;;;;;;;;;15.00;14.33;;;;;20.56;44.75;101290.97;4960796;28;45583;-69
2023/07/07 00:03:43;;;;;;;;;17.00;17.00;;;;;20.53;44.78;101287.44;4959038;28;45365;-69
2023/07/07 00:06:08;;;;;;;;;15.67;14.00;;;;;20.48;44.76;101291.91;4960594;28;45264;-70
2023/07/07 00:08:34;;;;;;;;;13.00;13.00;;;;;20.44;45.12;101296.41;4959410;28;45208;-69
2023/07/07 00:11:00;;;;;;;;;15.00;13.67;;;;;20.40;45.40;101291.09;4960143;28;45476;-69
2023/07/07 00:13:26;;;;;;;;;19.67;14.00;;;;;20.39;45.47;101302.69;4959644;28;46178;-69
2023/07/07 00:16:00;;;;;;;;;18.33;14.33;;;;;20.34;45.36;101292.03;4960551;28;45268;-69
2023/07/07 00:18:26;;;;;;;;;20.00;19.00;;;;;20.28;45.47;101284.91;4936314;28;45380;-69
2023/07/07 00:20:53;;;;;;;;;26.00;21.00;;;;;20.28;45.76;101290.28;4926645;28;46706;-69
2023/07/07 00:23:18;;;;;;;;;23.33;19.33;;;;;20.24;46.03;101285.81;4954950;28;46151;-69
2023/07/07 00:25:43;;;;;;;;;20.67;20.00;;;;;20.21;46.02;101288.53;4929691;28;48101;-69
2023/07/07 00:28:09;;;;;;;;;21.00;18.33;;;;;20.18;45.91;101301.09;4954415;28;45367;-69
2023/07/07 00:30:34;;;;;;;;;22.33;18.67;;;;;20.09;46.22;101292.19;4956759;28;45397;-69
2023/07/07 00:32:59;;;;;;;;;19.00;16.33;;;;;20.03;46.77;101286.88;4959476;28;46219;-69
2023/07/07 00:35:25;;;;;;;;;20.67;18.33;;;;;20.10;46.95;101303.81;4960236;28;45354;-69
2023/07/07 00:37:50;;;;;;;;;18.00;17.00;;;;;19.99;46.64;101289.59;4959497;28;45432;-69
2023/07/07 00:40:19;;;;;;;;;21.33;19.00;;;;;20.02;46.42;101301.19;4942655;28;45657;-69
2023/07/07 00:42:44;;;;;;;;;22.33;17.00;;;;;19.93;47.42;101285.16;4946225;28;45298;-69
2023/07/07 00:45:18;;;;;;;;;20.00;18.00;;;;;19.90;48.25;101295.91;4959453;28;45211;-69
2023/07/07 00:47:53;;;;;;;;;19.00;18.33;;;;;19.87;46.75;101294.13;4946203;28;45488;-69
2023/07/07 00:50:21;;;;;;;;;18.67;17.33;;;;;19.83;48.02;101284.34;4949210;28;46478;-69
2023/07/07 00:52:47;;;;;;;;;20.67;18.67;;;;;19.84;47.77;101288.78;4958656;28;46304;-69
2023/07/07 00:55:24;;;;;;;;;17.67;16.33;;;;;19.71;47.58;101267.41;4959528;28;45299;-69
2023/07/07 00:57:50;;;;;;;;;20.33;18.00;;;;;19.77;48.02;101291.50;4939740;28;45331;-69
2023/07/07 01:00:16;;;;;;;;;18.67;17.00;;;;;19.66;47.98;101273.69;4958148;28;45406;-70
2023/07/07 01:02:51;;;;;;;;;22.33;19.00;;;;;19.74;47.56;101288.84;4958129;28;45347;-69
2023/07/07 01:05:17;;;;;;;;;24.00;21.00;;;;;19.61;48.60;101272.78;4959244;28;45284;-69
2023/07/07 01:07:45;;;;;;;;;24.33;19.00;;;;;19.62;47.57;101269.19;4959375;28;45352;-69
2023/07/07 01:10:11;;;;;;;;;20.67;18.67;;;;;19.68;47.22;101274.56;4959511;28;45411;-69
2023/07/07 01:12:37;;;;;;;;;22.00;19.00;;;;;19.62;47.72;101257.59;4951237;28;46868;-69
2023/07/07 01:15:03;;;;;;;;;18.67;16.33;;;;;19.67;47.83;101277.28;4959665;28;45314;-69
2023/07/07 01:17:59;;;;;;;;;22.67;18.67;;;;;19.64;47.13;101271.88;4959475;28;45401;-69
2023/07/07 01:20:31;;;;;;;;;22.33;19.00;;;;;19.66;47.51;101275.47;4955081;28;45317;-69
2023/07/07 01:23:23;;;;;;;;;17.67;17.33;;;;;19.59;48.00;101268.34;4956581;28;45415;-69
2023/07/07 01:26:19;;;;;;;;;18.00;17.00;;;;;19.61;47.14;101274.59;4957767;28;45462;-69
2023/07/07 01:29:14;;;;;;;;;18.00;15.00;;;;;19.50;46.09;101257.66;4950533;28;45233;-69
2023/07/07 01:31:45;;;;;;;;;16.67;15.33;;;;;19.58;46.85;101270.13;4958913;28;45591;-69
2023/07/07 01:34:13;;;;;;;;;15.67;13.67;;;;;19.51;47.86;101267.47;4957636;28;45452;-69
2023/07/07 01:36:39;;;;;;;;;15.00;12.67;;;;;19.53;47.71;101265.69;4934981;28;45277;-69
2023/07/07 01:39:05;;;;;;;;;12.33;12.33;;;;;19.55;47.44;101275.50;4959011;28;45398;-69
2023/07/07 01:41:41;;;;;;;;;14.67;13.33;;;;;19.44;47.50;101255.91;4958901;28;45295;-69
2023/07/07 01:44:32;;;;;;;;;15.00;12.33;;;;;19.46;48.04;101256.78;4954760;28;46224;-69
2023/07/07 01:47:06;;;;;;;;;16.33;15.00;;;;;19.52;47.49;101269.25;4958174;28;45465;-69
2023/07/07 01:49:44;;;;;;;;;12.00;11.67;;;;;19.49;47.60;101267.47;4952193;28;45390;-69
2023/07/07 01:52:22;;;;;;;;;13.33;12.33;;;;;19.45;47.97;101263.94;4956005;28;45649;-69
2023/07/07 01:55:01;;;;;;;;;13.33;12.33;;;;;19.46;47.92;101270.19;4960361;28;46188;-69
2023/07/07 01:57:27;;;;;;;;;15.67;10.33;;;;;19.39;48.23;101257.72;4960103;28;45466;-69
2023/07/07 01:59:54;;;;;;;;;14.67;11.00;;;;;19.37;48.59;101259.50;4962727;28;45318;-69
2023/07/07 02:02:20;;;;;;;;;12.33;12.00;;;;;19.32;48.26;101259.50;4961443;28;45357;-69
2023/07/07 02:04:45;;;;;;;;;12.67;12.00;;;;;19.33;47.42;101255.06;4960158;28;45737;-69
2023/07/07 02:07:10;;;;;;;;;12.67;10.00;;;;;19.17;47.99;101227.44;4961557;28;45287;-69
2023/07/07 02:09:37;;;;;;;;;11.33;9.67;;;;;19.29;48.22;101250.59;4958828;28;46806;-69
2023/07/07 02:12:03;;;;;;;;;11.33;11.33;;;;;19.31;48.77;101256.84;4961542;28;45518;-69
2023/07/07 02:14:28;;;;;;;;;13.33;12.00;;;;;19.28;48.92;101259.56;4957563;28;45254;-69
2023/07/07 02:16:53;;;;;;;;;10.00;10.00;;;;;19.23;48.63;101252.41;4961459;28;52182;-69
2023/07/07 02:19:19;;;;;;;;;9.67;9.67;;;;;19.19;48.00;101247.97;4956928;28;45437;-69
2023/07/07 02:21:44;;;;;;;;;13.67;12.00;;;;;19.23;48.63;101257.75;4934864;28;56164;-69
2023/07/07 02:24:09;;;;;;;;;14.00;11.33;;;;;19.14;49.16;101252.44;4955145;28;54412;-69
2023/07/07 02:26:35;;;;;;;;;11.67;10.00;;;;;19.16;49.03;101258.69;4961267;28;45354;-69
2023/07/07 02:29:00;;;;;;;;;9.67;9.00;;;;;19.12;47.88;101256.91;4961710;28;45302;-69
2023/07/07 02:31:26;;;;;;;;;11.00;10.33;;;;;19.12;49.53;101250.66;4961835;28;45517;-69
2023/07/07 02:33:52;;;;;;;;;10.00;10.00;;;;;19.12;49.49;101245.31;4961316;28;45318;-69
2023/07/07 02:36:18;;;;;;;;;11.00;9.00;;;;;19.08;49.56;101252.47;4943930;28;45659;-69
2023/07/07 02:38:45;;;;;;;;;10.00;7.67;;;;;19.05;49.64;101251.59;4961478;28;45431;-69
2023/07/07 02:41:10;;;;;;;;;7.67;6.67;;;;;18.98;49.67;101242.69;4961455;28;45472;-69
2023/07/07 02:43:36;;;;;;;;;7.67;7.67;;;;;19.01;48.57;101248.91;4960811;28;46493;-69
2023/07/07 02:46:01;;;;;;;;;9.67;8.67;;;;;18.99;49.60;101244.47;4961387;28;45397;-69
2023/07/07 02:48:26;;;;;;;;;9.00;9.00;;;;;18.97;49.77;101247.16;4960439;28;45278;-69
2023/07/07 02:51:01;;;;;;;;;10.67;8.00;;;;;18.92;48.85;101243.59;4960699;28;45174;-69
2023/07/07 02:53:29;;;;;;;;;8.33;8.33;;;;;18.93;49.56;101245.38;4943163;28;46712;-69
2023/07/07 02:55:55;;;;;;;;;10.00;8.67;;;;;18.82;49.20;101231.13;4960725;28;45334;-69
2023/07/07 02:58:21;;;;;;;;;9.67;8.00;;;;;18.86;48.16;101248.09;4960594;28;45367;-69
2023/07/07 03:00:48;;;;;;;;;9.00;8.00;;;;;18.83;49.89;101248.97;4959132;28;45653;-69
2023/07/07 03:03:14;;;;;;;;;9.00;9.00;;;;;18.79;49.01;101249.88;4960423;28;45421;-69
2023/07/07 03:05:40;;;;;;;;;13.33;10.67;;;;;18.72;49.46;101240.03;4957678;28;45174;-68
2023/07/07 03:08:06;;;;;;;;;10.67;9.67;;;;;18.68;50.15;101236.50;4960828;28;45544;-69
2023/07/07 03:10:35;;;;;;;;;12.00;9.33;;;;;18.70;49.37;101241.81;4958367;28;45256;-69
2023/07/07 03:13:01;;;;;;;;;8.67;8.67;;;;;18.70;50.47;101242.72;4960222;28;45418;-69
2023/07/07 03:15:38;;;;;;;;;12.00;9.33;;;;;18.71;49.93;101244.50;4959540;28;45227;-69
2023/07/07 03:18:10;;;;;;;;;8.67;8.67;;;;;18.68;50.07;101239.16;4959881;28;45315;-69
2023/07/07 03:20:36;;;;;;;;;9.00;8.00;;;;;18.64;49.62;101233.81;4960399;28;45309;-69
2023/07/07 03:23:03;;;;;;;;;8.00;8.00;;;;;18.64;49.04;101236.50;4959196;28;45500;-69
2023/07/07 03:25:29;;;;;;;;;8.67;8.67;;;;;18.63;50.50;101238.28;4960397;28;45381;-69
2023/07/07 03:27:55;;;;;;;;;9.00;8.00;;;;;18.62;50.67;101240.94;4959089;28;45325;-69
2023/07/07 03:30:20;;;;;;;;;10.67;9.67;;;;;18.59;50.32;101231.13;4959964;28;45224;-70
2023/07/07 03:32:46;;;;;;;;;9.33;8.33;;;;;18.49;50.34;101227.59;4960031;28;46200;-69
2023/07/07 03:35:11;;;;;;;;;8.00;8.00;;;;;18.53;49.92;101234.69;4960077;28;45196;-69
2023/07/07 03:37:38;;;;;;;;;8.00;6.00;;;;;18.50;50.65;101234.72;4959604;28;45912;-69
2023/07/07 03:40:09;;;;;;;;;10.00;10.00;;;;;18.47;51.31;101234.72;4960264;28;45715;-69
2023/07/07 03:42:35;;;;;;;;;7.67;7.00;;;;;18.44;49.48;101225.81;4958919;28;45298;-69
2023/07/07 03:45:00;;;;;;;;;7.67;7.33;;;;;18.32;51.07;101224.94;4960146;28;45293;-69
2023/07/07 03:47:25;;;;;;;;;8.00;8.00;;;;;18.39;51.23;101236.50;4958488;28;45235;-69
2023/07/07 03:49:51;;;;;;;;;11.00;8.67;;;;;18.39;51.25;101247.22;4952878;28;46295;-70
2023/07/07 03:52:17;;;;;;;;;8.00;7.67;;;;;18.30;50.35;101237.41;4952002;28;45420;-69
2023/07/07 03:54:43;;;;;;;;;6.67;6.67;;;;;18.25;50.70;101230.28;4960448;28;45177;-70
2023/07/07 03:57:10;;;;;;;;;7.00;7.00;;;;;18.33;51.74;101249.91;4959642;28;45390;-69
2023/07/07 03:59:36;;;;;;;;;13.00;10.00;;;;;18.26;51.37;101246.34;4960399;28;45500;-69
2023/07/07 04:02:02;;;;;;;;;9.33;9.00;;;;;18.32;51.42;101246.34;4939404;28;45595;-69
2023/07/07 04:04:27;;;;;;;;;7.67;6.00;;;;;18.30;51.53;101255.25;4958562;28;45338;-69
2023/07/07 04:06:55;;;;;;;;;7.33;7.33;;;;;18.29;51.37;101251.69;4957804;28;45413;-69
2023/07/07 04:09:21;;;;;;;;;10.67;8.00;;;;;18.27;51.50;101242.78;4940623;28;46782;-69
2023/07/07 04:11:46;;;;;;;;;10.00;7.67;;;;;18.29;50.58;101246.34;4956617;28;46259;-69
2023/07/07 04:14:11;;;;;;;;;8.67;8.67;;;;;18.29;51.57;101251.69;4953131;28;45882;-69
2023/07/07 04:16:37;;;;;;;;;12.00;8.33;;;;;18.24;51.01;101249.91;4958303;28;45207;-69
2023/07/07 04:19:02;;;;;;;;;7.00;7.00;;;;;18.27;51.84;101258.81;4941359;28;45919;-70
2023/07/07 04:21:30;;;;;;;;;8.00;8.00;;;;;18.23;52.10;101254.38;4941429;28;48161;-69
2023/07/07 04:23:57;;;;;;;;;7.67;7.00;;;;;18.22;50.49;101257.94;4958438;28;45437;-69
2023/07/07 04:26:23;;;;;;;;;7.00;7.00;;;;;18.24;50.87;101256.16;4958066;28;45449;-69
2023/07/07 04:28:53;;;;;;;;;8.33;8.00;;;;;18.18;49.62;101245.47;4958157;28;45386;-69
2023/07/07 04:31:21;;;;;;;;;9.33;8.00;;;;;18.27;50.55;101260.63;4959991;28;45263;-69
2023/07/07 04:33:47;;;;;;;;;8.67;6.67;;;;;18.29;51.74;101261.53;4939357;28;45494;-69
2023/07/07 04:36:15;;;;;;;;;10.00;8.33;;;;;18.22;51.52;101251.69;4951041;28;44786;-69
2023/07/07 04:38:41;;;;;;;;;11.67;8.00;;;;;18.31;51.49;101265.94;4956789;28;45985;-69
2023/07/07 04:41:12;;;;;;;;;9.67;8.67;;;;;18.30;51.56;101265.97;4950585;28;46121;-70
2023/07/07 04:43:46;;;;;;;;;9.67;9.67;;;;;18.19;51.02;101249.91;4955370;28;45347;-69
2023/07/07 04:46:14;;;;;;;;;8.00;8.00;;;;;18.28;50.91;101262.38;4960337;28;45407;-69
2023/07/07 04:48:40;;;;;;;;;9.33;7.00;;;;;18.31;49.76;101263.28;4954532;28;45446;-70
2023/07/07 04:51:08;;;;;;;;;9.33;6.67;;;;;18.33;51.27;101263.28;4944738;28;46378;-70
2023/07/07 04:53:34;;;;;;;;;9.33;8.00;;;;;18.36;51.20;101259.72;4956447;28;45369;-69
2023/07/07 04:56:01;;;;;;;;;10.00;9.67;;;;;18.31;50.54;101251.69;4954231;28;45345;-68
2023/07/07 04:58:27;;;;;;;;;10.00;9.00;;;;;18.31;51.90;101249.88;4956620;28;45394;-69
2023/07/07 05:01:04;;;;;;;;;16.67;10.67;;;;;18.44;51.37;101266.84;4956459;28;45540;-69
2023/07/07 05:03:30;;;;;;;;;9.33;8.33;;;;;18.48;51.00;101259.69;4957573;28;45377;-69
2023/07/07 05:05:56;;;;;;;;;9.33;7.67;;;;;18.50;51.38;101257.91;4957723;28;45493;-69
2023/07/07 05:08:22;;;;;;;;;8.67;8.67;;;;;18.52;51.09;101265.06;4956662;28;45437;-69
2023/07/07 05:10:48;;;;;;;;;6.33;5.00;;;;;18.53;50.95;101257.91;4957523;28;46568;-69
2023/07/07 05:13:13;;;;;;;;;9.00;8.33;;;;;18.44;51.08;101241.88;4939312;28;45412;-69
2023/07/07 05:15:38;;;;;;;;;8.00;6.00;;;;;18.53;49.33;101249.88;4958029;28;46261;-69
2023/07/07 05:18:03;;;;;;;;;8.00;7.67;;;;;18.54;49.87;101255.25;4957556;28;45537;-69
2023/07/07 05:20:29;;;;;;;;;10.33;10.33;;;;;18.65;50.42;101262.34;4957899;28;45509;-70
2023/07/07 05:22:54;;;;;;;;;9.33;9.33;;;;;18.67;49.34;101264.13;4957722;28;47696;-69
2023/07/07 05:25:19;;;;;;;;;13.00;10.33;;;;;18.70;50.28;101268.59;4958180;28;45615;-69
2023/07/07 05:27:45;;;;;;;;;11.00;9.33;;;;;18.74;50.82;101275.78;4956807;28;46051;-68
2023/07/07 05:30:10;;;;;;;;;10.33;10.33;;;;;18.76;51.11;101276.66;4951725;28;45328;-70
2023/07/07 05:32:36;;;;;;;;;10.33;8.00;;;;;18.81;50.66;101277.53;4955551;28;45346;-70
2023/07/07 05:35:01;;;;;;;;;10.00;8.33;;;;;18.80;49.17;101275.78;4957054;28;45456;-69
2023/07/07 05:37:26;;;;;;;;;8.00;8.00;;;;;18.86;50.60;101278.44;4961110;28;45505;-69
2023/07/07 05:39:51;;;;;;;;;11.33;8.67;;;;;18.86;50.42;101278.44;4955454;28;48023;-69
2023/07/07 05:42:17;;;;;;;;;7.67;7.67;;;;;18.83;50.28;101258.81;4959885;28;56788;-69
2023/07/07 05:44:42;;;;;;;;;7.67;7.67;;;;;18.99;50.08;101277.50;4959929;28;45413;-68
2023/07/07 05:47:07;;;;;;;;;8.00;8.00;;;;;18.96;50.41;101257.84;4936592;28;45418;-69
2023/07/07 05:49:33;;;;;;;;;10.33;9.67;;;;;19.10;49.32;101279.25;4961367;28;46514;-69
2023/07/07 05:51:58;;;;;;;;;9.67;9.67;;;;;19.13;48.96;101280.16;4954149;28;45315;-69
2023/07/07 05:54:23;;;;;;;;;10.33;8.33;;;;;19.07;49.87;101269.44;4960910;28;45323;-69
2023/07/07 05:56:50;;;;;;;;;8.00;8.00;;;;;19.07;49.29;101249.78;4960550;28;45471;-69
2023/07/07 05:59:15;;;;;;;;;7.00;7.00;;;;;19.14;49.86;101260.50;4958135;28;46098;-69
2023/07/07 06:01:41;;;;;;;;;9.67;8.33;;;;;19.31;49.53;101281.88;4938734;28;45263;-68
2023/07/07 06:04:06;;;;;;;;;9.33;9.00;;;;;19.35;49.65;101272.94;4961922;28;45228;-69
2023/07/07 06:06:32;;;;;;;;;9.00;8.00;;;;;19.40;48.93;101272.88;4961875;28;45558;-68
2023/07/07 06:08:57;;;;;;;;;10.00;7.67;;;;;19.43;49.20;101264.81;4956420;28;46016;-69
2023/07/07 06:11:23;;;;;;;;;9.00;8.67;;;;;19.53;49.77;101274.63;4961164;28;45610;-69
2023/07/07 06:13:48;;;;;;;;;8.67;8.67;;;;;19.62;49.58;101279.03;4955343;28;45215;-69
2023/07/07 06:16:14;;;;;;;;;15.00;10.67;;;;;19.67;48.96;101277.28;4962174;28;45169;-69
2023/07/07 06:18:39;;;;;;;;;9.67;9.00;;;;;19.73;49.42;101276.34;4954208;28;45509;-69
2023/07/07 06:21:05;;;;;;;;;10.33;7.67;;;;;19.85;48.54;101276.25;4961748;28;45275;-71
2023/07/07 06:23:31;;;;;;;;;7.67;7.67;;;;;19.95;48.23;101280.69;4954610;28;45418;-71
2023/07/07 06:25:57;;;;;;;;;9.33;7.00;;;;;19.93;48.22;101261.00;4961023;28;45402;-68
2023/07/07 06:28:22;;;;;;;;;12.67;11.33;;;;;20.08;48.01;101265.34;4960624;28;46446;-69
2023/07/07 06:30:49;;;;;;;;;14.00;10.00;;;;;20.27;47.76;101280.41;4953296;28;45545;-68
2023/07/07 06:33:15;;;;;;;;;11.00;8.00;;;;;20.41;47.39;101268.69;4959778;28;45449;-69
2023/07/07 06:35:42;;;;;;;;;8.00;8.00;;;;;20.66;47.13;101277.44;4952978;28;45402;-69
2023/07/07 06:38:07;;;;;;;;;13.67;9.00;;;;;20.91;46.61;101270.91;4958646;28;45409;-71
2023/07/07 06:40:34;;;;;;;;;8.33;7.67;;;;;21.14;46.14;101261.69;4951876;28;45252;-69
2023/07/07 06:43:00;;;;;;;;;11.00;9.67;;;;;21.53;45.66;101279.16;4957484;28;45460;-69
2023/07/07 06:45:25;;;;;;;;;9.33;6.00;;;;;21.84;45.07;101271.53;4960958;28;45464;-69
2023/07/07 06:47:51;;;;;;;;;9.00;7.33;;;;;22.13;44.15;101264.84;4959379;28;45814;-69
2023/07/07 06:50:40;;;;;;;;;10.33;10.33;;;;;22.49;44.27;101275.94;4960636;28;45319;-69
2023/07/07 06:53:06;;;;;;;;;8.33;8.00;;;;;22.85;43.23;101276.19;4955050;28;45608;-69
2023/07/07 06:55:31;;;;;;;;;8.33;7.33;;;;;23.08;43.18;101268.59;4961294;28;45328;-71
2023/07/07 06:57:56;;;;;;;;;11.00;8.33;;;;;23.28;42.34;101260.09;4958219;28;46287;-69
2023/07/07 07:00:22;;;;;;;;;9.33;8.00;;;;;23.62;42.56;101271.03;4961123;28;45270;-70
2023/07/07 07:02:47;;;;;;;;;11.67;9.33;;;;;23.86;41.91;101280.44;4961211;28;45540;-69
2023/07/07 07:05:13;;;;;;;;;9.00;8.00;;;;;24.13;41.36;101281.56;4958356;28;45230;-70
2023/07/07 07:07:38;;;;;;;;;10.00;8.67;;;;;24.47;41.20;101278.06;4960618;28;45421;-69
2023/07/07 07:10:04;;;;;;;;;13.00;11.00;;;;;24.60;39.99;101258.84;4958453;28;45291;-71
2023/07/07 07:12:30;;;;;;;;;11.33;9.67;;;;;24.90;40.98;101279.66;4959582;28;45348;-71
2023/07/07 07:14:56;;;;;;;;;11.00;8.75;;;;;25.16;41.33;101275.34;4939893;28;45826;-72
2023/07/07 07:17:23;;;;;;;;;16.00;12.00;;;;;25.23;39.98;101247.16;4960850;28;46066;-75
2023/07/07 07:19:48;;;;;;;;;11.00;9.00;;;;;25.66;38.69;101271.13;4958061;28;45614;-71
2023/07/07 07:22:14;;;;;;;;;13.00;10.00;;;;;25.82;38.24;101271.56;4960844;28;45458;-72
2023/07/07 07:24:39;;;;;;;;;13.25;9.75;;;;;26.09;38.06;101277.94;4958803;28;45508;-71
2023/07/07 07:27:05;;;;;;;;;13.50;10.25;;;;;26.39;38.69;101275.16;4960428;28;45247;-71
2023/07/07 07:29:31;;;;;;;;;58.67;36.67;;;;;26.53;37.61;101272.88;4958528;28;45440;-70
2023/07/07 07:31:56;;;;;;;;;14.75;10.75;;;;;26.73;36.55;101266.75;4943154;28;45391;-71
2023/07/07 07:34:30;;;;;;;;;14.50;9.50;;;;;27.09;37.42;101282.66;4958397;28;45253;-70
2023/07/07 07:36:59;;;;;;;;;10.25;9.00;;;;;27.38;36.76;101284.31;4942139;28;46761;-72
2023/07/07 07:39:24;;;;;;;;;64.33;35.00;;;;;27.42;36.89;101247.09;4936079;28;45545;-72
2023/07/07 07:41:51;;;;;;;;;13.25;10.25;;;;;27.64;35.41;101261.59;4944855;28;46085;-73
2023/07/07 07:44:18;;;;;;;;;10.25;9.00;;;;;27.84;35.38;101277.13;4920352;28;46264;-72
2023/07/07 07:46:48;;;;;;;;;8.25;7.75;;;;;27.95;35.99;101270.34;4940263;28;45495;-72
2023/07/07 07:49:14;;;;;;;;;8.25;6.25;;;;;27.90;36.68;101262.41;4938825;28;45490;-72
2023/07/07 07:51:40;;;;;;;;;9.75;9.75;;;;;28.02;33.76;101275.47;4923100;28;45343;-72
2023/07/07 07:54:07;;;;;;;;;12.75;9.25;;;;;28.16;34.36;101272.19;4923723;28;46653;-72
2023/07/07 07:56:33;;;;;;;;;11.25;10.00;;;;;28.35;34.35;101277.75;4923141;28;47117;-72
2023/07/07 07:58:59;;;;;;;;;13.00;10.75;;;;;28.47;33.72;101277.25;4940305;28;45383;-72
2023/07/07 08:01:25;;;;;;;;;12.50;11.25;;;;;28.69;34.07;101260.03;4939686;28;45327;-74
2023/07/07 08:03:50;;;;;;;;;9.75;9.25;;;;;28.78;33.28;101265.03;4937849;28;45367;-72
2023/07/07 08:06:16;;;;;;;;;13.50;10.25;;;;;29.08;34.11;101286.44;4939447;28;49462;-73
2023/07/07 08:08:41;;;;;;;;;9.50;8.25;;;;;29.32;33.26;101262.63;4939009;28;45407;-73
2023/07/07 08:11:11;;;;;;;;;10.25;9.25;;;;;29.68;32.20;101273.66;4939660;28;45259;-73
2023/07/07 08:13:37;;;;;;;;;29.00;27.67;;;;;29.78;32.06;101276.84;4938593;28;45445;-72
2023/07/07 08:16:02;;;;;;;;;13.25;10.50;;;;;30.02;31.04;101282.94;4922427;28;45322;-73
2023/07/07 08:18:27;;;;;;;;;7.75;7.75;;;;;30.24;31.26;101283.66;4919727;28;45479;-72
2023/07/07 08:20:53;;;;;;;;;11.00;10.75;;;;;30.12;31.17;101262.44;4939300;28;45432;-73
2023/07/07 08:23:18;;;;;;;;;9.50;6.25;;;;;30.36;30.44;101293.09;4938485;28;45443;-73
2023/07/07 08:25:45;;;;;;;;;8.75;7.00;;;;;30.41;30.57;101285.53;4938658;28;45368;-73
2023/07/07 08:28:11;;;;;;;;;10.60;8.80;;;;;30.32;28.74;101275.97;4937941;28;45542;-74
2023/07/07 08:30:36;;;;;;;;;10.50;6.00;;;;;30.51;29.75;101281.38;4922603;28;45273;-74
2023/07/07 08:33:02;;;;;;;;;10.25;8.75;;;;;30.72;30.63;101273.91;4937739;28;45567;-74
2023/07/07 08:35:27;;;;;;;;;10.00;10.00;;;;;30.90;31.43;101268.50;4931664;28;45423;-74
2023/07/07 08:37:52;;;;;;;;;7.00;6.00;;;;;30.83;28.75;101283.41;4934009;28;45261;-74
2023/07/07 08:40:22;;;;;;;;;8.25;8.00;;;;;31.07;29.85;101276.66;4932067;28;45311;-74
2023/07/07 08:42:47;;;;;;;;;13.40;11.20;;;;;31.07;30.45;101275.78;4933631;28;45271;-74
2023/07/07 08:45:22;;;;;;;;;16.20;9.60;;;;;30.92;31.10;101275.66;4936565;28;46914;-74
2023/07/07 08:48:00;;;;;;;;;7.60;5.40;;;;;30.85;30.93;101282.38;4929682;28;45496;-74
2023/07/07 08:50:53;;;;;;;;;9.00;8.80;;;;;30.34;28.99;101289.53;4940171;28;45320;-76
2023/07/07 08:53:40;;;;;;;;;10.80;9.20;;;;;30.22;30.17;101280.16;4929058;28;45378;-75
2023/07/07 08:56:15;;;;;;;;;8.80;7.60;;;;;30.18;30.31;101283.94;4930596;28;46241;-74
2023/07/07 08:58:49;;;;;;;;;12.60;7.60;;;;;30.22;29.67;101282.88;4934355;28;45747;-77
2023/07/07 09:01:52;;;;;;;;;9.80;9.60;;;;;30.29;30.95;101281.59;4915444;28;45410;-74
2023/07/07 09:04:36;;;;;;;;;7.80;7.00;;;;;30.37;29.93;101280.31;4931939;28;45771;-72
2023/07/07 09:07:17;;;;;;;;;296.00;164.75;;;;;30.41;30.77;101284.66;4937396;28;45458;-72
2023/07/07 09:09:55;;;;;;;;;13.00;8.00;;;;;30.18;30.71;101289.38;4937511;28;45560;-72
2023/07/07 09:12:48;;;;;;;;;8.00;7.80;;;;;30.02;30.94;101278.34;4924016;28;45329;-73
2023/07/07 09:15:25;;;;;;;;;9.40;8.00;;;;;29.80;30.38;101272.19;4939389;28;45284;-73
2023/07/07 09:17:57;;;;;;;;;10.60;10.20;;;;;29.67;31.60;101282.81;4937044;28;46540;-72
2023/07/07 09:20:26;;;;;;;;;9.40;8.80;;;;;29.63;31.01;101283.91;4940363;28;45421;-74
2023/07/07 09:23:02;;;;;;;;;7.00;7.00;;;;;29.65;31.88;101287.44;4938042;28;46019;-72
2023/07/07 09:25:44;;;;;;;;;23.00;12.50;;;;;29.61;32.50;101281.22;4939325;28;45514;-71
2023/07/07 09:28:14;;;;;;;;;69.67;41.00;;;;;29.64;31.83;101283.84;4938072;28;45405;-73
2023/07/07 09:30:45;;;;;;;;;10.20;7.40;;;;;29.78;31.99;101274.13;4939501;28;45355;-72
2023/07/07 09:33:16;;;;;;;;;8.50;8.50;;;;;29.98;30.52;101268.56;4938483;28;45569;-72
2023/07/07 09:35:53;;;;;;;;;11.50;10.00;;;;;30.39;30.96;101271.09;4920536;28;45919;-72
2023/07/07 09:38:44;;;;;;;;;8.60;7.40;;;;;30.77;30.77;101258.16;4937517;28;46363;-71
2023/07/07 09:41:19;;;;;;;;;10.00;7.20;;;;;31.22;29.84;101261.28;4938792;28;45359;-71
2023/07/07 09:43:56;;;;;;;;;12.00;9.80;;;;;31.67;28.87;101266.06;4937779;28;45753;-71
2023/07/07 09:46:32;;;;;;;;;10.00;8.40;;;;;32.09;27.58;101267.31;4939762;28;45393;-71
2023/07/07 09:49:09;;;;;;;;;22.25;17.25;;;;;32.45;28.33;101268.84;4937414;28;45429;-71
2023/07/07 09:51:46;;;;;;;;;8.80;8.20;;;;;32.68;28.31;101244.69;4939518;28;45248;-71
2023/07/07 09:54:15;;;;;;;;;10.20;6.20;;;;;32.75;26.90;101248.84;4936142;28;45358;-71
2023/07/07 09:56:49;;;;;;;;;9.00;7.40;;;;;32.94;28.54;101251.31;4938695;28;45456;-71
2023/07/07 09:59:21;;;;;;;;;14.00;11.80;;;;;33.04;27.50;101249.78;4934302;28;47470;-70
2023/07/07 10:01:50;;;;;;;;;10.80;9.00;;;;;33.09;27.53;101252.25;4938233;28;45392;-71
2023/07/07 10:04:19;;;;;;;;;10.40;9.20;;;;;33.14;27.34;101255.59;4936671;28;45288;-71
2023/07/07 10:06:56;;;;;;;;;7.40;7.20;;;;;33.16;28.50;101250.88;4938259;28;46164;-71
2023/07/07 10:09:21;;;;;;;;;11.00;8.80;;;;;33.19;28.95;101254.31;4937850;28;45370;-72
2023/07/07 10:11:49;;;;;;;;;11.50;9.75;;;;;33.11;27.10;101237.47;4938002;28;45422;-71
2023/07/07 10:14:16;;;;;;;;;7.00;5.00;;;;;33.14;28.53;101250.09;4936170;28;45323;-72
2023/07/07 10:16:44;;;;;;;;;7.80;7.80;;;;;33.06;27.19;101246.97;4941970;28;45260;-71
2023/07/07 10:19:12;;;;;;;;;7.60;6.60;;;;;32.98;27.43;101251.03;4939564;28;46231;-71
2023/07/07 10:21:38;;;;;;;;;7.20;7.20;;;;;32.95;28.01;101259.44;4942474;28;45428;-72
2023/07/07 10:24:04;;;;;;;;;8.00;8.00;;;;;32.64;27.07;101246.75;4940677;28;45355;-72
2023/07/07 10:26:29;;;;;;;;;7.60;7.20;;;;;32.50;28.01;101236.66;4942548;28;45481;-71
2023/07/07 10:28:59;;;;;;;;;9.50;9.50;;;;;32.33;27.84;101239.50;4935063;28;47177;-71
2023/07/07 10:31:26;;;;;;;;;17.80;15.20;;;;;32.22;27.39;101242.88;4942776;28;45410;-71
2023/07/07 10:33:56;;;;;;;;;10.40;9.00;;;;;32.23;28.30;101252.81;4940791;28;45422;-71
2023/07/07 10:36:28;;;;;;;;;14.00;12.40;;;;;32.14;28.87;101233.34;4942683;28;45269;-71
2023/07/07 10:38:55;;;;;;;;;12.00;10.60;;;;;32.09;29.03;101237.22;4938849;28;45311;-71
2023/07/07 10:41:21;;;;;;;;;11.80;11.20;;;;;32.16;29.71;101243.25;4942566;28;45331;-71
2023/07/07 10:43:47;;;;;;;;;7.40;7.40;;;;;32.18;28.83;101241.31;4939515;28;45304;-70
2023/07/07 10:46:12;;;;;;;;;9.00;8.50;;;;;31.97;28.65;101216.09;4925381;28;45882;-71
2023/07/07 10:48:43;;;;;;;;;7.00;6.00;;;;;32.17;28.50;101247.72;4919277;28;53015;-71
2023/07/07 10:51:37;;;;;;;;;9.40;9.40;;;;;32.16;29.14;101243.25;4934739;28;45443;-72
2023/07/07 10:54:09;;;;;;;;;11.00;11.00;;;;;32.08;27.67;101235.47;4938377;28;45335;-72
2023/07/07 10:56:46;;;;;;;;;10.00;10.00;;;;;32.06;28.68;101228.34;4941996;28;45257;-70
2023/07/07 10:59:23;;;;;;;;;18.60;18.60;;;;;32.05;28.84;101235.66;4937221;28;46761;-71
2023/07/07 11:01:51;;;;;;;;;10.40;7.80;;;;;32.14;29.07;101227.88;4940534;28;45300;-71
2023/07/07 11:04:44;;;;;;;;;10.20;9.80;;;;;32.17;29.28;101233.16;4938422;28;45449;-71
2023/07/07 11:07:32;;;;;;;;;8.80;8.80;;;;;32.21;29.21;101223.78;4922112;28;46050;-71
2023/07/07 11:10:26;;;;;;;;;10.60;10.40;;;;;32.30;29.39;101223.25;4941362;28;45260;-70
2023/07/07 11:12:51;;;;;;;;;9.40;8.20;;;;;32.32;28.30;101215.81;4936241;28;45447;-70
2023/07/07 11:15:24;;;;;;;;;27.50;25.75;;;;;32.30;28.39;101223.25;4942207;28;45284;-70
2023/07/07 11:18:03;;;;;;;;;17.60;14.40;;;;;32.25;28.37;101208.97;4937840;28;45406;-70
2023/07/07 11:20:52;;;;;;;;;18.80;15.40;;;;;32.35;28.75;101209.28;4942023;28;45614;-70
2023/07/07 11:23:41;;;;;;;;;26.80;20.60;;;;;32.40;28.83;101201.69;4937870;28;45402;-70
2023/07/07 11:26:21;;;;;;;;;13.80;11.20;;;;;32.62;28.22;101196.69;4941341;28;45192;-70